sensor_id;sensor_type;location;lat;lon;timestamp;pressure;altitude;pressure_sealevel;temperature;humidity
30614;BME280;17381;51.690;5.270;2022-08-21T00:01:52;101728.81;;;17.17;63.99
30614;BME280;17381;51.690;5.270;2022-08-21T00:35:37;101691.41;;;16.78;65.13
30614;BME280;17381;51.690;5.270;2022-08-21T00:42:43;101708.91;;;16.82;65.28
30614;BME280;17381;51.690;5.270;2022-08-21T00:53:32;101708.19;;;16.78;65.73
30614;BME280;17381;51.690;5.270;2022-08-21T00:57:18;101705.53;;;16.77;65.67
30614;BME280;17381;51.690;5.270;2022-08-21T01:00:03;101704.09;;;16.68;65.92
30614;BME280;17381;51.690;5.270;2022-08-21T01:03:14;101699.66;;;16.69;66.00
30614;BME280;17381;51.690;5.270;2022-08-21T01:06:20;101709.34;;;16.70;66.08
30614;BME280;17381;51.690;5.270;2022-08-21T01:25:37;101701.94;;;16.54;65.85
30614;BME280;17381;51.690;5.270;2022-08-21T01:29:07;101701.09;;;16.54;66.13
30614;BME280;17381;51.690;5.270;2022-08-21T01:32:32;101704.69;;;16.53;66.38
30614;BME280;17381;51.690;5.270;2022-08-21T01:39:23;101703.84;;;16.51;66.24
30614;BME280;17381;51.690;5.270;2022-08-21T01:42:59;101691.81;;;16.42;66.60
30614;BME280;17381;51.690;5.270;2022-08-21T01:46:06;101699.69;;;16.44;66.69
30614;BME280;17381;51.690;5.270;2022-08-21T01:49:21;101701.38;;;16.46;66.65
30614;BME280;17381;51.690;5.270;2022-08-21T01:52:43;101699.66;;;16.45;66.88
30614;BME280;17381;51.690;5.270;2022-08-21T01:55:59;101702.31;;;16.45;66.81
30614;BME280;17381;51.690;5.270;2022-08-21T01:59:12;101704.09;;;16.45;67.04
30614;BME280;17381;51.690;5.270;2022-08-21T02:09:16;101696.41;;;16.37;66.59
30614;BME280;17381;51.690;5.270;2022-08-21T02:12:36;101697.44;;;16.33;66.80
30614;BME280;17381;51.690;5.270;2022-08-21T02:19:50;101690.72;;;16.23;66.79
30614;BME280;17381;51.690;5.270;2022-08-21T02:26:18;101665.72;;;16.05;66.85
30614;BME280;17381;51.690;5.270;2022-08-21T02:29:13;101683.16;;;16.12;66.84
30614;BME280;17381;51.690;5.270;2022-08-21T02:32:27;101689.44;;;16.09;66.92
30614;BME280;17381;51.690;5.270;2022-08-21T02:35:43;101671.25;;;15.99;66.81
30614;BME280;17381;51.690;5.270;2022-08-21T02:38:50;101683.41;;;16.04;66.72
30614;BME280;17381;51.690;5.270;2022-08-21T02:42:49;101672.00;;;16.02;67.09
30614;BME280;17381;51.690;5.270;2022-08-21T02:46:23;101671.25;;;15.99;67.08
30614;BME280;17381;51.690;5.270;2022-08-21T02:50:23;101666.06;;;15.96;67.25
30614;BME280;17381;51.690;5.270;2022-08-21T02:53:14;101638.44;;;15.76;67.27
30614;BME280;17381;51.690;5.270;2022-08-21T02:56:31;101668.00;;;15.90;67.15
30614;BME280;17381;51.690;5.270;2022-08-21T02:59:47;101669.00;;;15.86;67.23
30614;BME280;17381;51.690;5.270;2022-08-21T03:03:03;101662.03;;;15.84;67.52
30614;BME280;17381;51.690;5.270;2022-08-21T03:06:13;101668.19;;;15.84;67.55
30614;BME280;17381;51.690;5.270;2022-08-21T03:13:01;101661.31;;;15.79;67.57
30614;BME280;17381;51.690;5.270;2022-08-21T03:16:26;101656.06;;;15.77;67.54
30614;BME280;17381;51.690;5.270;2022-08-21T03:19:49;101654.44;;;15.73;67.47
30614;BME280;17381;51.690;5.270;2022-08-21T03:23:10;101646.63;;;15.68;67.48
30614;BME280;17381;51.690;5.270;2022-08-21T03:26:05;101647.69;;;15.63;67.81
30614;BME280;17381;51.690;5.270;2022-08-21T03:28:51;101648.53;;;15.65;67.57
30614;BME280;17381;51.690;5.270;2022-08-21T03:32:09;101639.97;;;15.57;67.84
30614;BME280;17381;51.690;5.270;2022-08-21T03:34:51;101628.66;;;15.52;67.90
30614;BME280;17381;51.690;5.270;2022-08-21T03:37:55;101642.53;;;15.58;67.86
30614;BME280;17381;51.690;5.270;2022-08-21T03:40:35;101642.63;;;15.57;67.64
30614;BME280;17381;51.690;5.270;2022-08-21T03:43:15;101627.88;;;15.48;67.36
30614;BME280;17381;51.690;5.270;2022-08-21T03:46:09;101625.06;;;15.53;67.90
30614;BME280;17381;51.690;5.270;2022-08-21T03:48:59;101627.06;;;15.46;68.01
30614;BME280;17381;51.690;5.270;2022-08-21T03:51:50;101629.69;;;15.46;67.73
30614;BME280;17381;51.690;5.270;2022-08-21T03:54:35;101632.34;;;15.46;67.94
30614;BME280;17381;51.690;5.270;2022-08-21T03:57:20;101625.44;;;15.42;68.00
30614;BME280;17381;51.690;5.270;2022-08-21T04:00:10;101645.78;;;15.41;67.91
30614;BME280;17381;51.690;5.270;2022-08-21T04:03:20;101642.25;;;15.41;67.98
30614;BME280;17381;51.690;5.270;2022-08-21T04:06:02;101637.03;;;15.38;68.02
30614;BME280;17381;51.690;5.270;2022-08-21T04:08:54;101596.56;;;15.08;67.72
30614;BME280;17381;51.690;5.270;2022-08-21T04:11:59;101649.72;;;15.28;68.05
30614;BME280;17381;51.690;5.270;2022-08-21T04:15:07;101615.25;;;15.03;68.24
30614;BME280;17381;51.690;5.270;2022-08-21T04:17:58;101651.66;;;15.23;68.14
30614;BME280;17381;51.690;5.270;2022-08-21T04:20:36;101647.38;;;15.19;68.40
30614;BME280;17381;51.690;5.270;2022-08-21T04:23:18;101652.56;;;15.22;68.06
30614;BME280;17381;51.690;5.270;2022-08-21T04:26:10;101625.03;;;14.99;68.11
30614;BME280;17381;51.690;5.270;2022-08-21T04:29:01;101642.38;;;15.10;68.15
30614;BME280;17381;51.690;5.270;2022-08-21T04:31:59;101651.13;;;15.12;68.47
30614;BME280;17381;51.690;5.270;2022-08-21T04:34:49;101608.59;;;14.90;68.43
30614;BME280;17381;51.690;5.270;2022-08-21T04:37:28;101658.88;;;15.18;68.41
30614;BME280;17381;51.690;5.270;2022-08-21T04:40:28;101658.97;;;15.15;68.84
30614;BME280;17381;51.690;5.270;2022-08-21T04:43:05;101662.47;;;15.15;68.92
30614;BME280;17381;51.690;5.270;2022-08-21T04:45:39;101656.53;;;15.09;68.76
30614;BME280;17381;51.690;5.270;2022-08-21T04:48:30;101653.06;;;15.07;69.17
30614;BME280;17381;51.690;5.270;2022-08-21T04:51:14;101660.75;;;15.14;69.05
30614;BME280;17381;51.690;5.270;2022-08-21T04:54:02;101667.78;;;15.15;69.07
30614;BME280;17381;51.690;5.270;2022-08-21T04:56:52;101627.84;;;14.95;68.98
30614;BME280;17381;51.690;5.270;2022-08-21T04:59:46;101657.28;;;15.12;69.44
30614;BME280;17381;51.690;5.270;2022-08-21T05:02:39;101660.88;;;15.11;69.22
30614;BME280;17381;51.690;5.270;2022-08-21T05:05:28;101639.88;;;15.05;69.24
30614;BME280;17381;51.690;5.270;2022-08-21T05:08:27;101668.50;;;15.20;69.25
30614;BME280;17381;51.690;5.270;2022-08-21T05:11:07;101625.97;;;14.98;69.29
30614;BME280;17381;51.690;5.270;2022-08-21T05:13:43;101673.75;;;15.22;69.69
30614;BME280;17381;51.690;5.270;2022-08-21T05:16:51;101670.13;;;15.26;69.60
30614;BME280;17381;51.690;5.270;2022-08-21T05:19:53;101678.00;;;15.27;69.66
30614;BME280;17381;51.690;5.270;2022-08-21T05:22:26;101625.13;;;14.96;69.88
30614;BME280;17381;51.690;5.270;2022-08-21T05:25:12;101684.81;;;15.36;69.98
30614;BME280;17381;51.690;5.270;2022-08-21T05:27:56;101673.47;;;15.31;69.88
30614;BME280;17381;51.690;5.270;2022-08-21T05:30:34;101690.88;;;15.38;69.88
30614;BME280;17381;51.690;5.270;2022-08-21T05:33:14;101678.56;;;15.37;69.74
30614;BME280;17381;51.690;5.270;2022-08-21T05:36:06;101693.38;;;15.44;69.74
30614;BME280;17381;51.690;5.270;2022-08-21T05:39:12;101688.97;;;15.43;69.85
30614;BME280;17381;51.690;5.270;2022-08-21T05:42:16;101696.91;;;15.43;70.09
30614;BME280;17381;51.690;5.270;2022-08-21T05:45:06;101668.97;;;15.33;69.87
30614;BME280;17381;51.690;5.270;2022-08-21T05:47:50;101662.81;;;15.33;69.92
30614;BME280;17381;51.690;5.270;2022-08-21T05:53:30;101684.19;;;15.55;70.18
30614;BME280;17381;51.690;5.270;2022-08-21T05:56:35;101691.94;;;15.61;70.34
30614;BME280;17381;51.690;5.270;2022-08-21T05:59:22;101678.78;;;15.58;70.38
30614;BME280;17381;51.690;5.270;2022-08-21T06:02:05;101681.06;;;15.68;70.30
30614;BME280;17381;51.690;5.270;2022-08-21T06:04:41;101685.41;;;15.73;70.65
30614;BME280;17381;51.690;5.270;2022-08-21T06:07:43;101690.53;;;15.77;70.32
30614;BME280;17381;51.690;5.270;2022-08-21T06:10:28;101689.50;;;15.81;70.58
30614;BME280;17381;51.690;5.270;2022-08-21T06:13:03;101679.78;;;15.82;70.46
30614;BME280;17381;51.690;5.270;2022-08-21T06:15:42;101683.09;;;15.88;70.39
30614;BME280;17381;51.690;5.270;2022-08-21T06:18:25;101683.84;;;15.92;70.39
30614;BME280;17381;51.690;5.270;2022-08-21T06:21:14;101659.53;;;15.79;70.49
30614;BME280;17381;51.690;5.270;2022-08-21T06:23:52;101678.59;;;15.90;70.41
30614;BME280;17381;51.690;5.270;2022-08-21T06:26:47;101690.53;;;16.04;70.74
30614;BME280;17381;51.690;5.270;2022-08-21T06:29:40;101680.81;;;16.03;70.84
30614;BME280;17381;51.690;5.270;2022-08-21T06:36:23;101665.00;;;16.00;70.72
30614;BME280;17381;51.690;5.270;2022-08-21T06:39:28;101698.53;;;16.27;70.83
30614;BME280;17381;51.690;5.270;2022-08-21T06:42:16;101691.19;;;16.34;70.68
30614;BME280;17381;51.690;5.270;2022-08-21T06:45:16;101691.84;;;16.41;70.71
30614;BME280;17381;51.690;5.270;2022-08-21T06:48:17;101686.50;;;16.42;70.99
30614;BME280;17381;51.690;5.270;2022-08-21T06:51:00;101670.75;;;16.38;70.95
30614;BME280;17381;51.690;5.270;2022-08-21T06:53:54;101699.78;;;16.66;71.17
30614;BME280;17381;51.690;5.270;2022-08-21T06:56:39;101690.66;;;16.73;70.86
30614;BME280;17381;51.690;5.270;2022-08-21T07:02:36;101684.16;;;16.82;71.05
30614;BME280;17381;51.690;5.270;2022-08-21T07:05:18;101678.38;;;16.94;71.15
30614;BME280;17381;51.690;5.270;2022-08-21T07:08:21;101687.47;;;17.10;70.96
30614;BME280;17381;51.690;5.270;2022-08-21T07:11:14;101688.03;;;17.18;71.07
30614;BME280;17381;51.690;5.270;2022-08-21T07:13:48;101681.56;;;17.26;71.02
30614;BME280;17381;51.690;5.270;2022-08-21T07:16:28;101690.63;;;17.42;71.17
30614;BME280;17381;51.690;5.270;2022-08-21T07:19:09;101687.53;;;17.53;71.18
30614;BME280;17381;51.690;5.270;2022-08-21T07:21:41;101684.69;;;17.57;71.29
30614;BME280;17381;51.690;5.270;2022-08-21T07:24:19;101685.97;;;17.69;70.95
30614;BME280;17381;51.690;5.270;2022-08-21T07:27:04;101692.81;;;17.75;70.70
30614;BME280;17381;51.690;5.270;2022-08-21T07:29:46;101686.66;;;17.74;70.61
30614;BME280;17381;51.690;5.270;2022-08-21T07:32:50;101680.94;;;17.83;70.62
30614;BME280;17381;51.690;5.270;2022-08-21T07:35:18;101693.38;;;17.83;70.76
30614;BME280;17381;51.690;5.270;2022-08-21T07:38:09;101684.94;;;17.94;70.81
30614;BME280;17381;51.690;5.270;2022-08-21T07:41:07;101678.28;;;18.04;70.76
30614;BME280;17381;51.690;5.270;2022-08-21T07:43:42;101678.97;;;18.09;70.46
30614;BME280;17381;51.690;5.270;2022-08-21T07:49:59;101697.72;;;18.26;69.84
30614;BME280;17381;51.690;5.270;2022-08-21T07:52:41;101678.03;;;18.30;69.87
30614;BME280;17381;51.690;5.270;2022-08-21T07:55:16;101676.75;;;18.39;69.91
30614;BME280;17381;51.690;5.270;2022-08-21T07:58:24;101682.31;;;18.53;69.72
30614;BME280;17381;51.690;5.270;2022-08-21T08:01:12;101684.25;;;18.69;69.38
30614;BME280;17381;51.690;5.270;2022-08-21T08:04:03;101665.38;;;18.75;69.17
30614;BME280;17381;51.690;5.270;2022-08-21T08:06:38;101679.03;;;18.86;69.03
30614;BME280;17381;51.690;5.270;2022-08-21T08:09:19;101682.09;;;18.98;68.78
30614;BME280;17381;51.690;5.270;2022-08-21T08:12:00;101679.81;;;19.07;68.38
30614;BME280;17381;51.690;5.270;2022-08-21T08:14:37;101658.44;;;19.09;68.51
30614;BME280;17381;51.690;5.270;2022-08-21T08:17:12;101663.72;;;19.28;68.53
30614;BME280;17381;51.690;5.270;2022-08-21T08:20:39;101663.97;;;19.40;68.41
30614;BME280;17381;51.690;5.270;2022-08-21T08:23:04;101660.78;;;19.51;68.08
30614;BME280;17381;51.690;5.270;2022-08-21T08:25:40;101618.88;;;19.36;67.81
30614;BME280;17381;51.690;5.270;2022-08-21T08:28:21;101660.81;;;19.69;67.56
30614;BME280;17381;51.690;5.270;2022-08-21T08:31:01;101660.66;;;19.89;67.43
30614;BME280;17381;51.690;5.270;2022-08-21T08:33:37;101657.66;;;19.95;67.14
30614;BME280;17381;51.690;5.270;2022-08-21T08:36:39;101649.88;;;20.08;66.88
30614;BME280;17381;51.690;5.270;2022-08-21T08:39:11;101668.25;;;20.32;66.46
30614;BME280;17381;51.690;5.270;2022-08-21T08:41:48;101648.97;;;20.42;66.12
30614;BME280;17381;51.690;5.270;2022-08-21T08:44:27;101656.06;;;20.59;65.69
30614;BME280;17381;51.690;5.270;2022-08-21T08:47:06;101654.56;;;20.71;65.04
30614;BME280;17381;51.690;5.270;2022-08-21T08:50:08;101653.69;;;20.86;64.75
30614;BME280;17381;51.690;5.270;2022-08-21T08:52:52;101635.78;;;20.88;64.34
30614;BME280;17381;51.690;5.270;2022-08-21T08:55:39;101648.00;;;21.08;64.34
30614;BME280;17381;51.690;5.270;2022-08-21T08:58:42;101643.84;;;21.19;63.81
30614;BME280;17381;51.690;5.270;2022-08-21T09:01:33;101639.69;;;21.29;63.47
30614;BME280;17381;51.690;5.270;2022-08-21T09:04:26;101646.50;;;21.50;62.48
30614;BME280;17381;51.690;5.270;2022-08-21T09:08:09;101598.97;;;21.40;62.11
30614;BME280;17381;51.690;5.270;2022-08-21T09:10:36;101635.28;;;21.74;61.47
30614;BME280;17381;51.690;5.270;2022-08-21T09:17:12;101639.06;;;22.00;61.27
30614;BME280;17381;51.690;5.270;2022-08-21T09:28:48;101632.13;;;22.26;60.04
30614;BME280;17381;51.690;5.270;2022-08-21T09:31:41;101635.66;;;22.41;59.47
30614;BME280;17381;51.690;5.270;2022-08-21T09:34:26;101636.81;;;22.51;58.90
30614;BME280;17381;51.690;5.270;2022-08-21T09:37:24;101641.94;;;22.69;59.23
30614;BME280;17381;51.690;5.270;2022-08-21T09:43:10;101638.94;;;22.88;58.76
30614;BME280;17381;51.690;5.270;2022-08-21T09:46:19;101635.69;;;22.97;58.40
30614;BME280;17381;51.690;5.270;2022-08-21T09:48:57;101639.13;;;22.99;58.01
30614;BME280;17381;51.690;5.270;2022-08-21T09:51:48;101639.50;;;23.07;57.36
30614;BME280;17381;51.690;5.270;2022-08-21T09:54:45;101610.97;;;23.06;57.36
30614;BME280;17381;51.690;5.270;2022-08-21T09:57:28;101641.50;;;23.30;56.36
30614;BME280;17381;51.690;5.270;2022-08-21T10:00:47;101631.09;;;23.39;56.10
30614;BME280;17381;51.690;5.270;2022-08-21T10:03:41;101589.88;;;23.27;55.66
30614;BME280;17381;51.690;5.270;2022-08-21T10:06:48;101631.16;;;23.64;55.60
30614;BME280;17381;51.690;5.270;2022-08-21T10:09:25;101620.16;;;23.82;55.14
30614;BME280;17381;51.690;5.270;2022-08-21T10:12:23;101625.78;;;24.04;54.04
30614;BME280;17381;51.690;5.270;2022-08-21T10:18:48;101630.81;;;24.22;53.47
30614;BME280;17381;51.690;5.270;2022-08-21T10:28:06;101624.38;;;24.37;53.36
30614;BME280;17381;51.690;5.270;2022-08-21T10:31:08;101622.53;;;24.25;53.34
30614;BME280;17381;51.690;5.270;2022-08-21T10:37:40;101615.84;;;24.56;51.92
30614;BME280;17381;51.690;5.270;2022-08-21T10:50:48;101614.50;;;24.98;50.14
30614;BME280;17381;51.690;5.270;2022-08-21T10:56:38;101613.72;;;25.09;49.93
30614;BME280;17381;51.690;5.270;2022-08-21T11:06:40;101561.34;;;24.78;48.96
30614;BME280;17381;51.690;5.270;2022-08-21T11:09:26;101597.56;;;24.85;49.27
30614;BME280;17381;51.690;5.270;2022-08-21T11:12:11;101606.72;;;24.83;48.91
30614;BME280;17381;51.690;5.270;2022-08-21T11:18:31;101608.56;;;24.82;49.44
30614;BME280;17381;51.690;5.270;2022-08-21T11:21:49;101605.94;;;24.93;49.19
30614;BME280;17381;51.690;5.270;2022-08-21T11:24:42;101602.38;;;24.93;48.87
30614;BME280;17381;51.690;5.270;2022-08-21T11:27:48;101559.91;;;24.61;47.89
30614;BME280;17381;51.690;5.270;2022-08-21T11:31:02;101596.09;;;24.81;48.96
30614;BME280;17381;51.690;5.270;2022-08-21T11:34:05;101600.09;;;24.99;49.04
30614;BME280;17381;51.690;5.270;2022-08-21T11:37:10;101605.25;;;25.27;48.46
30614;BME280;17381;51.690;5.270;2022-08-21T11:40:37;101600.38;;;25.56;48.18
30614;BME280;17381;51.690;5.270;2022-08-21T11:43:48;101606.81;;;25.88;48.27
30614;BME280;17381;51.690;5.270;2022-08-21T11:54:07;101604.13;;;26.22;47.12
30614;BME280;17381;51.690;5.270;2022-08-21T11:56:55;101608.03;;;26.41;46.35
30614;BME280;17381;51.690;5.270;2022-08-21T11:59:43;101611.75;;;26.62;45.24
30614;BME280;17381;51.690;5.270;2022-08-21T12:02:28;101612.22;;;26.56;45.40
30614;BME280;17381;51.690;5.270;2022-08-21T12:08:33;101607.34;;;26.16;45.22
30614;BME280;17381;51.690;5.270;2022-08-21T12:11:27;101616.63;;;26.01;45.86
30614;BME280;17381;51.690;5.270;2022-08-21T12:18:27;101609.22;;;25.69;46.67
30614;BME280;17381;51.690;5.270;2022-08-21T12:21:27;101616.41;;;25.68;46.79
30614;BME280;17381;51.690;5.270;2022-08-21T12:24:20;101612.44;;;25.97;47.37
30614;BME280;17381;51.690;5.270;2022-08-21T12:30:51;101612.63;;;26.95;46.50
30614;BME280;17381;51.690;5.270;2022-08-21T12:33:39;101609.94;;;27.38;44.74
30614;BME280;17381;51.690;5.270;2022-08-21T12:44:18;101601.09;;;27.04;42.85
30614;BME280;17381;51.690;5.270;2022-08-21T12:46:54;101607.22;;;27.38;44.09
30614;BME280;17381;51.690;5.270;2022-08-21T12:50:29;101607.78;;;27.74;42.23
30614;BME280;17381;51.690;5.270;2022-08-21T12:53:02;101593.59;;;28.03;42.24
30614;BME280;17381;51.690;5.270;2022-08-21T12:55:57;101608.38;;;27.99;41.65
30614;BME280;17381;51.690;5.270;2022-08-21T12:58:53;101618.25;;;28.10;41.25
30614;BME280;17381;51.690;5.270;2022-08-21T13:01:39;101613.19;;;28.26;40.88
30614;BME280;17381;51.690;5.270;2022-08-21T13:04:38;101614.09;;;28.77;40.92
30614;BME280;17381;51.690;5.270;2022-08-21T13:07:37;101622.75;;;29.30;39.98
30614;BME280;17381;51.690;5.270;2022-08-21T13:11:28;101619.81;;;30.00;39.92
30614;BME280;17381;51.690;5.270;2022-08-21T13:14:05;101617.28;;;30.54;38.31
30614;BME280;17381;51.690;5.270;2022-08-21T13:16:47;101617.25;;;30.63;36.81
30614;BME280;17381;51.690;5.270;2022-08-21T13:19:20;101611.03;;;30.53;36.47
30614;BME280;17381;51.690;5.270;2022-08-21T13:22:18;101619.88;;;30.18;36.73
30614;BME280;17381;51.690;5.270;2022-08-21T13:25:14;101602.00;;;29.78;37.05
30614;BME280;17381;51.690;5.270;2022-08-21T13:28:19;101617.97;;;29.91;36.40
30614;BME280;17381;51.690;5.270;2022-08-21T13:31:02;101619.56;;;29.45;37.12
30614;BME280;17381;51.690;5.270;2022-08-21T13:41:14;101599.81;;;28.65;38.02
30614;BME280;17381;51.690;5.270;2022-08-21T13:44:23;101585.03;;;28.88;37.98
30614;BME280;17381;51.690;5.270;2022-08-21T13:47:08;101604.78;;;29.10;38.24
30614;BME280;17381;51.690;5.270;2022-08-21T13:50:02;101598.19;;;29.51;38.47
30614;BME280;17381;51.690;5.270;2022-08-21T13:52:54;101614.06;;;30.13;37.77
30614;BME280;17381;51.690;5.270;2022-08-21T13:55:53;101610.53;;;30.68;36.43
30614;BME280;17381;51.690;5.270;2022-08-21T13:58:47;101593.97;;;30.89;36.19
30614;BME280;17381;51.690;5.270;2022-08-21T14:01:39;101562.84;;;31.19;35.93
30614;BME280;17381;51.690;5.270;2022-08-21T14:04:39;101555.34;;;31.57;35.82
30614;BME280;17381;51.690;5.270;2022-08-21T14:07:48;101589.84;;;32.08;35.49
30614;BME280;17381;51.690;5.270;2022-08-21T14:10:46;101594.84;;;32.29;33.90
30614;BME280;17381;51.690;5.270;2022-08-21T14:14:29;101590.41;;;32.20;33.36
30614;BME280;17381;51.690;5.270;2022-08-21T14:17:05;101590.25;;;31.43;33.83
30614;BME280;17381;51.690;5.270;2022-08-21T14:20:32;101591.44;;;31.67;34.55
30614;BME280;17381;51.690;5.270;2022-08-21T14:23:29;101590.66;;;32.01;34.47
30614;BME280;17381;51.690;5.270;2022-08-21T14:26:20;101600.56;;;32.10;34.38
30614;BME280;17381;51.690;5.270;2022-08-21T14:29:04;101588.63;;;32.03;33.77
30614;BME280;17381;51.690;5.270;2022-08-21T14:32:22;101556.13;;;31.75;34.15
30614;BME280;17381;51.690;5.270;2022-08-21T14:35:11;101587.81;;;31.84;33.87
30614;BME280;17381;51.690;5.270;2022-08-21T14:37:47;101589.00;;;31.38;33.03
30614;BME280;17381;51.690;5.270;2022-08-21T14:40:27;101585.44;;;30.83;33.62
30614;BME280;17381;51.690;5.270;2022-08-21T14:43:12;101589.69;;;30.58;34.96
30614;BME280;17381;51.690;5.270;2022-08-21T14:46:09;101592.53;;;30.39;35.30
30614;BME280;17381;51.690;5.270;2022-08-21T14:48:49;101593.94;;;30.43;35.74
30614;BME280;17381;51.690;5.270;2022-08-21T14:51:25;101571.31;;;30.52;35.50
30614;BME280;17381;51.690;5.270;2022-08-21T14:53:55;101589.13;;;30.64;35.01
30614;BME280;17381;51.690;5.270;2022-08-21T14:56:27;101554.06;;;30.26;35.94
30614;BME280;17381;51.690;5.270;2022-08-21T14:59:11;101602.63;;;30.09;36.63
30614;BME280;17381;51.690;5.270;2022-08-21T15:02:04;101607.59;;;29.57;36.33
30614;BME280;17381;51.690;5.270;2022-08-21T15:04:48;101608.47;;;29.09;36.49
30614;BME280;17381;51.690;5.270;2022-08-21T15:07:38;101603.25;;;28.67;37.58
30614;BME280;17381;51.690;5.270;2022-08-21T15:10:17;101608.41;;;28.39;37.80
30614;BME280;17381;51.690;5.270;2022-08-21T15:13:11;101611.38;;;28.05;38.78
30614;BME280;17381;51.690;5.270;2022-08-21T15:15:53;101615.69;;;27.87;38.59
30614;BME280;17381;51.690;5.270;2022-08-21T16:25:07;101610.28;;;26.24;41.39
30614;BME280;17381;51.690;5.270;2022-08-21T16:27:50;101605.25;;;26.08;41.33
30614;BME280;17381;51.690;5.270;2022-08-21T16:34:50;101611.00;;;25.93;41.62
30614;BME280;17381;51.690;5.270;2022-08-21T16:44:46;101575.16;;;25.57;42.07
30614;BME280;17381;51.690;5.270;2022-08-21T17:32:11;101581.56;;;24.47;44.33
30614;BME280;17381;51.690;5.270;2022-08-21T17:35:21;101613.47;;;24.64;44.54
30614;BME280;17381;51.690;5.270;2022-08-21T17:38:42;101606.94;;;24.55;44.58
30614;BME280;17381;51.690;5.270;2022-08-21T17:41:56;101612.41;;;24.54;44.54
30614;BME280;17381;51.690;5.270;2022-08-21T17:45:17;101614.47;;;24.50;44.70
30614;BME280;17381;51.690;5.270;2022-08-21T17:52:08;101609.63;;;24.43;45.22
